Terminal Aerodrome Forecast
Issued by NWS

Home | Current Version | Previous Version | Text Only | Print | Product List | Glossary On
Versions: 1 2 3 4 5 6 7 8 9 10 11 12 13 14 15 16 17 18 19 20 21
000
FTUS44 KLIX 232300 RRA
TAFMSY
TAF
KMSY 232340Z 2400/2424 21011KT P6SM FEW250
     FM240500 22011KT 6SM BR BKN008
     FM240800 27009KT 3SM BR BKN005
     FM241100 28009KT P6SM BKN250
     FM241800 32011KT P6SM FEW250=

USA.gov is the U.S. government's official web portal to all federal, state and local government web resources and services.